createdAt,value
2018-02-23T06:31:10.929Z,14.33
2018-02-23T06:31:42.967Z,14.34
2018-02-23T06:32:14.981Z,14.33
2018-02-23T06:32:47.025Z,14.36
2018-02-23T06:33:19.058Z,14.39
2018-02-23T06:33:51.057Z,14.33
2018-02-23T06:34:23.076Z,14.31
2018-02-23T06:34:55.104Z,14.41
2018-02-23T06:35:27.210Z,14.34
2018-02-23T06:35:59.239Z,14.44
2018-02-23T06:36:31.249Z,14.34
2018-02-23T06:37:03.347Z,14.33
2018-02-23T06:37:35.331Z,14.44
2018-02-23T06:38:07.326Z,14.33
2018-02-23T06:38:39.323Z,14.39
2018-02-23T06:39:11.341Z,14.45
2018-02-23T06:39:43.342Z,14.41
2018-02-23T06:40:15.317Z,14.39
2018-02-23T06:40:47.338Z,14.31
2018-02-23T06:41:19.411Z,14.41
2018-02-23T06:41:51.424Z,14.41
2018-02-23T06:42:23.426Z,14.39
2018-02-23T06:42:55.451Z,14.45
2018-02-23T06:43:27.469Z,14.44
2018-02-23T06:43:59.466Z,14.44
2018-02-23T06:44:31.860Z,14.45
2018-02-23T06:45:03.881Z,14.39
2018-02-23T06:45:35.951Z,14.41
2018-02-23T06:46:08.010Z,14.39
2018-02-23T06:46:40.027Z,14.46
2018-02-23T06:47:12.073Z,14.39
2018-02-23T06:47:44.172Z,14.42
2018-02-23T06:48:16.875Z,14.42
2018-02-23T06:48:48.931Z,14.41
2018-02-23T06:49:21.130Z,14.41
2018-02-23T06:49:53.238Z,14.44
2018-02-23T06:50:25.275Z,14.45
2018-02-23T06:50:57.307Z,14.36
2018-02-23T06:51:29.437Z,14.42
2018-02-23T06:52:01.423Z,14.48
2018-02-23T06:52:33.481Z,14.42
2018-02-23T06:53:05.520Z,14.49
2018-02-23T06:53:37.558Z,14.51
2018-02-23T06:54:09.576Z,14.51
2018-02-23T06:54:41.601Z,14.46
2018-02-23T06:55:13.607Z,14.38
2018-02-23T06:55:45.617Z,14.46
2018-02-23T06:56:17.668Z,14.44
2018-02-23T06:56:49.661Z,14.44
2018-02-23T06:57:21.690Z,14.44
2018-02-23T06:57:53.720Z,14.38
2018-02-23T06:58:25.752Z,14.46
2018-02-23T06:58:57.777Z,14.39
2018-02-23T06:59:29.747Z,14.42
2018-02-23T07:00:01.917Z,14.44
2018-02-23T07:00:34.055Z,14.42
2018-02-23T07:01:06.056Z,14.45
2018-02-23T07:01:38.091Z,14.57
2018-02-23T07:02:10.107Z,14.44
2018-02-23T07:02:42.163Z,14.44
2018-02-23T07:03:14.243Z,14.44
2018-02-23T07:03:46.286Z,14.48
2018-02-23T07:04:18.443Z,14.45
2018-02-23T07:04:50.949Z,14.49
2018-02-23T07:05:22.975Z,14.44
2018-02-23T07:05:55.064Z,14.46
2018-02-23T07:06:27.143Z,14.42
2018-02-23T07:06:59.318Z,14.46
2018-02-23T07:07:31.301Z,14.46
2018-02-23T07:08:03.304Z,14.51
2018-02-23T07:08:35.381Z,14.49
2018-02-23T07:09:07.432Z,14.51
2018-02-23T07:09:39.441Z,14.46
2018-02-23T07:10:11.628Z,14.53
2018-02-23T07:10:43.687Z,14.51
2018-02-23T07:11:15.850Z,14.53
2018-02-23T07:11:47.977Z,14.57
2018-02-23T07:12:19.983Z,14.57
2018-02-23T07:12:52.028Z,14.49
2018-02-23T07:13:24.018Z,14.49
2018-02-23T07:13:56.135Z,14.6
2018-02-23T07:14:28.170Z,14.56
2018-02-23T07:15:00.397Z,14.48
2018-02-23T07:15:32.407Z,14.52
2018-02-23T07:16:04.469Z,14.49
2018-02-23T07:16:36.469Z,14.56
2018-02-23T07:17:08.487Z,14.49
2018-02-23T07:17:40.529Z,14.49
2018-02-23T07:18:12.683Z,14.51
2018-02-23T07:18:45.340Z,14.53
2018-02-23T07:19:17.377Z,14.6
2018-02-23T07:19:49.416Z,14.63
2018-02-23T07:20:21.446Z,14.56
2018-02-23T07:20:53.487Z,14.59
2018-02-23T07:21:25.527Z,14.59
2018-02-23T07:21:57.576Z,14.6
2018-02-23T07:22:29.561Z,14.52
2018-02-23T07:23:01.577Z,14.66
2018-02-23T07:23:33.547Z,14.6
2018-02-23T07:24:05.576Z,14.57
2018-02-23T07:24:37.694Z,14.66
2018-02-23T07:25:09.702Z,14.66
2018-02-23T07:25:41.734Z,14.67
2018-02-23T07:26:13.773Z,14.57
2018-02-23T07:26:45.809Z,14.61
2018-02-23T07:27:17.809Z,14.6
2018-02-23T07:27:49.850Z,14.66
2018-02-23T07:28:21.904Z,14.66
2018-02-23T07:28:53.953Z,14.67
2018-02-23T07:29:25.981Z,14.56
2018-02-23T07:29:58.034Z,14.66
2018-02-23T07:30:30.034Z,14.61
2018-02-23T07:31:02.066Z,14.74
2018-02-23T07:31:34.093Z,14.66
2018-02-23T07:32:06.195Z,14.61
2018-02-23T07:32:38.334Z,14.69
2018-02-23T07:33:10.341Z,14.74
2018-02-23T07:33:42.389Z,14.69
2018-02-23T07:34:14.422Z,14.69
2018-02-23T07:34:46.461Z,14.77
2018-02-23T07:35:18.472Z,14.8
2018-02-23T07:35:50.468Z,14.74
2018-02-23T07:36:22.486Z,14.7
2018-02-23T07:36:55.224Z,14.82
2018-02-23T07:37:29.136Z,14.79
2018-02-23T07:38:01.182Z,14.79
2018-02-23T07:38:33.355Z,14.83
2018-02-23T07:39:05.402Z,14.79
2018-02-23T07:39:37.431Z,14.8
2018-02-23T07:40:09.498Z,14.77
2018-02-23T07:40:41.491Z,14.86
2018-02-23T07:41:13.501Z,14.83
2018-02-23T07:41:45.571Z,14.85
2018-02-23T07:42:17.628Z,14.8
2018-02-23T07:42:49.662Z,14.82
2018-02-23T07:43:21.705Z,14.93
2018-02-23T07:43:53.739Z,14.79
2018-02-23T07:44:25.716Z,14.93
2018-02-23T07:44:57.788Z,14.8
2018-02-23T07:45:29.798Z,14.79
2018-02-23T07:46:01.842Z,14.75
2018-02-23T07:46:33.852Z,14.89
2018-02-23T07:47:05.983Z,14.93
2018-02-23T07:47:38.620Z,14.85
2018-02-23T07:48:10.664Z,14.86
2018-02-23T07:48:42.706Z,14.9
2018-02-23T07:49:14.730Z,14.94
2018-02-23T07:49:46.720Z,14.97
2018-02-23T07:50:18.699Z,14.85
2018-02-23T07:50:50.844Z,14.95
2018-02-23T07:51:22.867Z,14.97
2018-02-23T07:51:55.044Z,15.04
2018-02-23T07:52:27.048Z,14.95
2018-02-23T07:52:59.078Z,14.95
2018-02-23T07:53:31.101Z,14.97
2018-02-23T07:54:03.150Z,15.01
2018-02-23T07:54:35.209Z,15
2018-02-23T07:55:07.245Z,15.05
2018-02-23T07:55:39.411Z,15.08
2018-02-23T07:56:11.457Z,15.12
2018-02-23T07:56:43.440Z,15.16
2018-02-23T07:57:15.537Z,15.1
2018-02-23T07:57:47.680Z,15.1
2018-02-23T07:58:19.722Z,15.15
2018-02-23T07:58:51.759Z,15.13
2018-02-23T07:59:23.822Z,15.12
2018-02-23T07:59:55.979Z,15.16
2018-02-23T08:00:28.105Z,15.19
2018-02-23T08:01:00.167Z,15.19
2018-02-23T08:01:32.458Z,15.19
2018-02-23T08:02:04.556Z,15.2
2018-02-23T08:02:36.552Z,15.26
2018-02-23T08:03:08.735Z,15.3
2018-02-23T08:03:41.180Z,15.18
2018-02-23T08:04:13.247Z,15.34
2018-02-23T08:04:45.277Z,15.23
2018-02-23T08:05:17.331Z,15.31
2018-02-23T08:05:49.347Z,15.26
2018-02-23T08:06:21.339Z,15.4
2018-02-23T08:06:54.176Z,15.34
2018-02-23T08:07:26.265Z,15.35
2018-02-23T08:07:58.671Z,15.35
2018-02-23T08:08:31.923Z,15.33
2018-02-23T08:09:04.004Z,15.4
2018-02-23T08:09:36.026Z,15.41
2018-02-23T08:10:07.978Z,15.45
2018-02-23T08:10:39.938Z,15.41
2018-02-23T08:11:11.976Z,15.49
2018-02-23T08:11:44.049Z,15.49
2018-02-23T08:12:16.176Z,15.49
2018-02-23T08:12:48.296Z,15.49
2018-02-23T08:13:20.399Z,15.49
2018-02-23T08:13:52.376Z,15.53
2018-02-23T08:14:24.404Z,15.6
2018-02-23T08:14:56.512Z,15.52
2018-02-23T08:15:28.615Z,15.59
2018-02-23T08:16:00.597Z,15.63
2018-02-23T08:16:32.682Z,15.63
2018-02-23T08:17:04.764Z,15.63
2018-02-23T08:17:36.819Z,15.59
2018-02-23T08:18:08.802Z,15.63
2018-02-23T08:18:40.899Z,15.67
2018-02-23T08:19:12.968Z,15.67
2018-02-23T08:19:45.158Z,15.71
2018-02-23T08:20:17.255Z,15.63
2018-02-23T08:20:49.384Z,15.78
2018-02-23T08:21:21.472Z,15.74
2018-02-23T08:21:53.449Z,15.74
2018-02-23T08:22:25.459Z,15.78
2018-02-23T08:22:57.531Z,15.86
2018-02-23T08:23:29.758Z,15.73
2018-02-23T08:24:01.964Z,15.78
2018-02-23T08:24:33.991Z,15.8
2018-02-23T08:25:05.994Z,15.78
2018-02-23T08:25:38.037Z,15.73
2018-02-23T08:26:10.059Z,15.83
2018-02-23T08:26:42.179Z,15.83
2018-02-23T08:27:14.218Z,15.86
2018-02-23T08:27:46.215Z,15.86
2018-02-23T08:28:18.226Z,15.83
2018-02-23T08:28:50.303Z,15.92
2018-02-23T08:29:22.336Z,15.93
2018-02-23T08:29:54.312Z,15.93
2018-02-23T08:30:26.333Z,15.91
2018-02-23T08:30:58.360Z,15.98
2018-02-23T08:31:30.409Z,16
2018-02-23T08:32:02.460Z,15.96
2018-02-23T08:32:34.480Z,16.04
2018-02-23T08:33:06.476Z,15.99
2018-02-23T08:33:38.584Z,16.07
2018-02-23T08:34:10.642Z,16.06
2018-02-23T08:34:42.668Z,16.08
2018-02-23T08:35:14.685Z,16.06
2018-02-23T08:35:46.692Z,16.04
2018-02-23T08:36:18.875Z,16.07
2018-02-23T08:36:50.901Z,16.06
2018-02-23T08:37:22.998Z,16.1
2018-02-23T08:37:55.031Z,16.13
2018-02-23T08:38:27.060Z,16.14
2018-02-23T08:38:59.095Z,16.13
2018-02-23T08:39:31.101Z,16.16
2018-02-23T08:40:03.090Z,16.29
2018-02-23T08:40:35.240Z,16.29
2018-02-23T08:41:07.285Z,16.29
2018-02-23T08:41:39.335Z,16.26
2018-02-23T08:42:11.381Z,16.29
2018-02-23T08:42:43.437Z,16.29
2018-02-23T08:43:15.465Z,16.21
2018-02-23T08:43:47.468Z,16.3
2018-02-23T08:44:19.590Z,16.26
2018-02-23T08:44:51.601Z,16.39
2018-02-23T08:45:23.608Z,16.34
2018-02-23T08:45:55.648Z,16.33
2018-02-23T08:46:27.899Z,16.27
2018-02-23T08:46:59.892Z,16.34
2018-02-23T08:47:31.928Z,16.27
2018-02-23T08:48:03.937Z,16.44
2018-02-23T08:48:35.992Z,16.45
2018-02-23T08:49:08.130Z,16.36
2018-02-23T08:49:40.152Z,16.39
2018-02-23T08:50:12.160Z,16.42
2018-02-23T08:50:44.193Z,16.45
2018-02-23T08:51:16.312Z,16.48
2018-02-23T08:51:48.289Z,16.45
2018-02-23T08:52:20.316Z,16.55
2018-02-23T08:52:52.489Z,16.52
2018-02-23T08:53:24.501Z,16.36
2018-02-23T08:53:56.526Z,16.49
2018-02-23T08:54:28.545Z,16.45
2018-02-23T08:55:00.668Z,16.49
2018-02-23T08:55:32.847Z,16.57
2018-02-23T08:56:05.385Z,16.63
2018-02-23T08:56:37.410Z,16.55
2018-02-23T08:57:09.490Z,16.57
2018-02-23T08:57:41.523Z,16.57
2018-02-23T08:58:13.572Z,16.57
2018-02-23T08:58:45.612Z,16.59
2018-02-23T08:59:17.661Z,16.66
2018-02-23T08:59:49.700Z,16.72
2018-02-23T09:00:21.712Z,16.67
2018-02-23T09:00:53.966Z,16.62
2018-02-23T09:01:26.047Z,16.77
2018-02-23T09:01:58.009Z,16.67
2018-02-23T09:02:30.078Z,16.77
2018-02-23T09:03:02.144Z,16.8
2018-02-23T09:03:34.186Z,16.84
2018-02-23T09:04:06.206Z,16.74
2018-02-23T09:04:38.232Z,16.88
2018-02-23T09:05:10.258Z,16.88
2018-02-23T09:05:42.294Z,16.88
2018-02-23T09:06:14.316Z,16.88
2018-02-23T09:06:46.337Z,16.91
2018-02-23T09:07:18.370Z,16.88
2018-02-23T09:07:50.397Z,16.9
2018-02-23T09:08:22.386Z,16.9
2018-02-23T09:08:54.586Z,16.9
2018-02-23T09:09:27.535Z,16.99
2018-02-23T09:09:59.575Z,16.92
2018-02-23T09:10:31.574Z,17.03
2018-02-23T09:11:03.566Z,16.97
2018-02-23T09:11:35.601Z,17.05
2018-02-23T09:12:07.588Z,17.13
2018-02-23T09:12:39.624Z,17.03
2018-02-23T09:13:11.734Z,17.05
2018-02-23T09:13:43.757Z,17.09
2018-02-23T09:14:15.792Z,17.09
2018-02-23T09:14:47.843Z,17.13
2018-02-23T09:15:19.972Z,17.12
2018-02-23T09:15:52.019Z,17.15
2018-02-23T09:16:24.113Z,17.18
2018-02-23T09:16:56.147Z,17.18
2018-02-23T09:17:28.134Z,17.18
2018-02-23T09:18:00.177Z,17.25
2018-02-23T09:18:32.240Z,17.24
2018-02-23T09:19:04.237Z,17.25
2018-02-23T09:19:36.250Z,17.25
2018-02-23T09:20:08.274Z,17.31
2018-02-23T09:20:40.252Z,17.32
2018-02-23T09:21:12.280Z,17.28
2018-02-23T09:21:44.343Z,17.24
2018-02-23T09:22:16.368Z,17.38
2018-02-23T09:22:48.371Z,17.4
2018-02-23T09:23:20.390Z,17.46
2018-02-23T09:23:52.423Z,17.42
2018-02-23T09:24:24.475Z,17.42
2018-02-23T09:24:56.483Z,17.5
2018-02-23T09:25:28.459Z,17.4
2018-02-23T09:26:00.475Z,17.49
2018-02-23T09:26:32.532Z,17.55
2018-02-23T09:27:04.578Z,17.5
2018-02-23T09:27:36.743Z,17.6
2018-02-23T09:28:08.810Z,17.57
2018-02-23T09:28:40.840Z,17.57
2018-02-23T09:29:12.860Z,17.55
2018-02-23T09:29:44.863Z,17.54
2018-02-23T09:30:16.937Z,17.55
2018-02-23T09:30:49.041Z,17.57
2018-02-23T09:31:21.159Z,17.49
2018-02-23T09:31:53.397Z,17.6
2018-02-23T09:32:25.533Z,17.65
2018-02-23T09:32:57.545Z,17.69
2018-02-23T09:33:29.626Z,17.68
2018-02-23T09:34:01.585Z,17.65
2018-02-23T09:34:37.197Z,17.66
2018-02-23T09:35:14.227Z,17.81
2018-02-23T09:35:47.962Z,17.77
2018-02-23T09:36:19.976Z,17.77
2018-02-23T09:36:51.930Z,17.77
2018-02-23T09:37:23.930Z,17.84
2018-02-23T09:37:56.533Z,17.88
2018-02-23T09:38:28.555Z,17.87
2018-02-23T09:39:00.577Z,17.94
2018-02-23T09:39:32.578Z,17.86
2018-02-23T09:40:04.674Z,17.94
2018-02-23T09:40:36.698Z,17.94
2018-02-23T09:41:08.709Z,17.9
2018-02-23T09:41:40.740Z,17.98
2018-02-23T09:42:12.771Z,17.99
2018-02-23T09:42:44.805Z,18.05
2018-02-23T09:43:16.868Z,17.99
2018-02-23T09:43:48.844Z,18.08
2018-02-23T09:44:20.805Z,18.02
2018-02-23T09:44:52.812Z,18.17
2018-02-23T09:45:24.827Z,18.14
2018-02-23T09:45:56.890Z,18.24
2018-02-23T09:46:28.931Z,18.13
2018-02-23T09:47:00.903Z,18.17
2018-02-23T09:47:32.925Z,18.16
2018-02-23T09:48:04.976Z,18.27
2018-02-23T09:48:37.015Z,18.36
2018-02-23T09:49:09.077Z,18.35
2018-02-23T09:49:41.081Z,18.31
2018-02-23T09:50:13.171Z,18.29
2018-02-23T09:50:45.134Z,18.42
2018-02-23T09:51:17.083Z,18.44
2018-02-23T09:51:49.100Z,18.38
2018-02-23T09:52:21.161Z,18.41
2018-02-23T09:52:53.322Z,18.49
2018-02-23T09:53:25.398Z,18.53
2018-02-23T09:53:57.380Z,18.51
2018-02-23T09:54:29.381Z,18.57
2018-02-23T09:55:01.394Z,18.54
2018-02-23T09:55:33.436Z,18.66
2018-02-23T09:56:05.507Z,18.68
2018-02-23T09:56:37.576Z,18.68
2018-02-23T09:57:09.675Z,18.71
2018-02-23T09:57:41.717Z,18.66
2018-02-23T09:58:13.746Z,18.71
2018-02-23T09:58:45.840Z,18.84
2018-02-23T09:59:17.832Z,18.79
2018-02-23T09:59:49.856Z,18.82
2018-02-23T10:00:21.903Z,18.84
2018-02-23T10:00:53.951Z,18.84
2018-02-23T10:01:25.987Z,18.81
2018-02-23T10:01:58.066Z,18.86
2018-02-23T10:02:30.075Z,18.82
2018-02-23T10:03:03.030Z,18.91
2018-02-23T10:03:35.196Z,18.94
2018-02-23T10:04:07.282Z,18.9
2018-02-23T10:04:39.435Z,18.94
2018-02-23T10:05:11.477Z,18.97
2018-02-23T10:05:43.469Z,18.99
2018-02-23T10:06:15.517Z,19.02
2018-02-23T10:06:47.500Z,19.06
2018-02-23T10:07:19.568Z,19.02
2018-02-23T10:07:51.627Z,19.09
2018-02-23T10:08:23.650Z,19.09
2018-02-23T10:08:55.600Z,19.1
2018-02-23T10:09:27.677Z,19.13
2018-02-23T10:09:59.700Z,19.17
2018-02-23T10:10:31.651Z,19.15
2018-02-23T10:11:03.681Z,19.15
2018-02-23T10:11:35.734Z,19.17
2018-02-23T10:12:07.731Z,19.13
2018-02-23T10:12:40.633Z,19.09
2018-02-23T10:13:12.658Z,19.3
2018-02-23T10:13:44.661Z,19.27
2018-02-23T10:14:16.764Z,19.28
2018-02-23T10:14:48.772Z,19.23
2018-02-23T10:15:20.801Z,19.23
2018-02-23T10:15:52.877Z,19.24
2018-02-23T10:16:24.875Z,19.19
2018-02-23T10:16:56.886Z,19.2
2018-02-23T10:17:28.918Z,19.2
2018-02-23T10:18:00.895Z,19.2
2018-02-23T10:18:32.932Z,19.24
2018-02-23T10:19:04.944Z,19.23
2018-02-23T10:19:36.907Z,19.31
2018-02-23T10:20:09.002Z,19.27
2018-02-23T10:20:41.197Z,19.24
2018-02-23T10:21:13.317Z,19.15
2018-02-23T10:21:45.359Z,19.17
2018-02-23T10:22:17.352Z,19.23
2018-02-23T10:22:49.400Z,19.19
2018-02-23T10:23:21.494Z,19.2
2018-02-23T10:23:53.536Z,19.19
2018-02-23T10:24:25.542Z,19.17
2018-02-23T10:24:57.659Z,19.12
2018-02-23T10:25:29.694Z,19.1
2018-02-23T10:26:01.697Z,19.15
2018-02-23T10:26:34.143Z,19.1
2018-02-23T10:27:06.135Z,19.17
2018-02-23T10:27:38.144Z,19.15
2018-02-23T10:28:10.178Z,19.16
2018-02-23T10:28:42.239Z,19.16
2018-02-23T10:29:14.275Z,19.15
2018-02-23T10:29:46.291Z,19.13
2018-02-23T10:30:18.356Z,19.15
2018-02-23T10:30:50.420Z,19.19
2018-02-23T10:31:22.442Z,19.1
2018-02-23T10:31:54.520Z,19.19
2018-02-23T10:32:26.883Z,19.15
2018-02-23T10:32:59.530Z,19.15
2018-02-23T10:33:33.201Z,19.02
2018-02-23T10:34:06.623Z,19.13
2018-02-23T10:34:38.641Z,19.12
2018-02-23T10:35:10.653Z,19.07
2018-02-23T10:35:42.691Z,19.16
2018-02-23T10:36:14.690Z,19.12
2018-02-23T10:36:46.752Z,19.16
2018-02-23T10:37:18.813Z,19.15
2018-02-23T10:37:50.984Z,19.15
2018-02-23T10:38:23.834Z,19.13
2018-02-23T10:38:55.881Z,19.24
2018-02-23T10:39:27.914Z,19.23
2018-02-23T10:39:59.895Z,19.3
2018-02-23T10:40:31.935Z,19.31
2018-02-23T10:41:04.073Z,19.31
2018-02-23T10:41:36.112Z,19.32
2018-02-23T10:42:08.134Z,19.34
2018-02-23T10:42:40.168Z,19.45
2018-02-23T10:43:12.220Z,19.43
2018-02-23T10:43:44.277Z,19.47
2018-02-23T10:44:16.217Z,19.45
2018-02-23T10:44:48.257Z,19.46
2018-02-23T10:45:20.266Z,19.53
2018-02-23T10:45:52.279Z,19.5
2018-02-23T10:46:24.437Z,19.53
2018-02-23T10:46:56.983Z,19.47
2018-02-23T10:47:29.018Z,19.56
2018-02-23T10:48:01.059Z,19.57
2018-02-23T10:48:33.054Z,19.63
2018-02-23T10:49:05.077Z,19.63
2018-02-23T10:49:37.149Z,19.63
2018-02-23T10:50:09.189Z,19.71
2018-02-23T10:50:41.184Z,19.71
2018-02-23T10:51:13.194Z,19.65
2018-02-23T10:51:45.267Z,19.68
2018-02-23T10:52:17.267Z,19.7
2018-02-23T10:52:49.329Z,19.63
2018-02-23T10:53:21.413Z,19.65
2018-02-23T10:53:53.433Z,19.7
2018-02-23T10:54:25.517Z,19.67
2018-02-23T10:54:57.634Z,19.7
2018-02-23T10:55:29.828Z,19.64
2018-02-23T10:56:01.841Z,19.65
2018-02-23T10:56:33.899Z,19.67
2018-02-23T10:57:05.889Z,19.68
2018-02-23T10:57:37.923Z,19.68
2018-02-23T10:58:09.902Z,19.68
2018-02-23T10:58:41.939Z,19.64
2018-02-23T10:59:13.986Z,19.65
2018-02-23T10:59:46.047Z,19.64
2018-02-23T11:00:18.070Z,19.63
2018-02-23T11:00:50.117Z,19.56
2018-02-23T11:01:22.155Z,19.64
2018-02-23T11:01:54.177Z,19.61
2018-02-23T11:02:26.222Z,19.6
2018-02-23T11:02:58.265Z,19.61
2018-02-23T11:03:30.997Z,19.61
2018-02-23T11:04:03.143Z,19.6
2018-02-23T11:04:35.157Z,19.63
2018-02-23T11:05:07.137Z,19.61
2018-02-23T11:05:39.147Z,19.67
2018-02-23T11:06:11.183Z,19.67
2018-02-23T11:06:43.321Z,19.65
2018-02-23T11:07:15.482Z,19.65
2018-02-23T11:07:47.674Z,19.61
2018-02-23T11:08:19.817Z,19.61
2018-02-23T11:08:51.822Z,19.61
2018-02-23T11:09:23.848Z,19.6
2018-02-23T11:09:55.895Z,19.63
2018-02-23T11:10:27.941Z,19.6
2018-02-23T11:10:59.959Z,19.52
2018-02-23T11:11:32.017Z,19.55
2018-02-23T11:12:04.045Z,19.53
2018-02-23T11:12:36.219Z,19.52
2018-02-23T11:13:08.266Z,19.52
2018-02-23T11:13:40.293Z,19.53
2018-02-23T11:14:12.329Z,19.5
2018-02-23T11:14:44.485Z,19.46
2018-02-23T11:15:16.720Z,19.5
2018-02-23T11:15:48.797Z,19.52
2018-02-23T11:16:20.890Z,19.46
2018-02-23T11:16:52.891Z,19.46
2018-02-23T11:17:24.972Z,19.49
2018-02-23T11:17:57.011Z,19.52
2018-02-23T11:18:29.022Z,19.55
2018-02-23T11:19:01.038Z,19.47
2018-02-23T11:19:33.079Z,19.49
2018-02-23T11:20:05.099Z,19.49
2018-02-23T11:20:37.216Z,19.47
2018-02-23T11:21:09.365Z,19.53
2018-02-23T11:21:41.498Z,19.53
2018-02-23T11:22:13.685Z,19.49
2018-02-23T11:22:45.729Z,19.49
2018-02-23T11:23:18.093Z,19.67
2018-02-23T11:23:50.137Z,19.64
2018-02-23T11:24:22.494Z,19.65
2018-02-23T11:24:54.507Z,19.71
2018-02-23T11:25:26.782Z,19.74
2018-02-23T11:25:58.798Z,19.72
2018-02-23T11:26:30.815Z,19.75
2018-02-23T11:27:02.816Z,19.8
2018-02-23T11:27:34.873Z,19.85
2018-02-23T11:28:09.772Z,19.93
2018-02-23T11:28:44.389Z,19.89
2018-02-23T11:29:16.958Z,19.92
2018-02-23T11:29:49.104Z,20.08
2018-02-23T11:30:22.070Z,20.07
2018-02-23T11:30:54.495Z,20.05
2018-02-23T11:31:26.532Z,20.15
2018-02-23T11:31:58.548Z,20.05
2018-02-23T11:32:30.553Z,20.16
2018-02-23T11:33:02.569Z,20.16
2018-02-23T11:33:35.481Z,20.22
2018-02-23T11:34:07.658Z,20.23
2018-02-23T11:34:39.663Z,20.34
2018-02-23T11:35:11.654Z,20.29
2018-02-23T11:35:43.669Z,20.32
2018-02-23T11:36:15.803Z,20.42
2018-02-23T11:36:47.842Z,20.38
2018-02-23T11:37:19.902Z,20.38
2018-02-23T11:37:51.931Z,20.49
2018-02-23T11:38:24.042Z,20.58
2018-02-23T11:38:56.038Z,20.6
2018-02-23T11:39:28.082Z,20.64
2018-02-23T11:40:00.135Z,20.68
2018-02-23T11:40:32.111Z,20.72
2018-02-23T11:41:04.150Z,20.82
2018-02-23T11:41:36.258Z,20.85
2018-02-23T11:42:08.304Z,20.86
2018-02-23T11:42:40.350Z,20.9
2018-02-23T11:43:12.355Z,21.06
2018-02-23T11:43:44.378Z,21.01
2018-02-23T11:44:16.586Z,21.01
2018-02-23T11:44:48.637Z,21.11
2018-02-23T11:45:20.663Z,21.15
2018-02-23T11:45:52.691Z,21.19
2018-02-23T11:46:24.759Z,21.22
2018-02-23T11:46:56.738Z,21.31
2018-02-23T11:47:28.795Z,21.34
2018-02-23T11:48:00.810Z,21.36
2018-02-23T11:48:33.485Z,21.46
2018-02-23T11:49:05.520Z,21.56
2018-02-23T11:49:37.558Z,21.56
2018-02-23T11:50:09.755Z,21.61
2018-02-23T11:50:41.909Z,21.62
2018-02-23T11:51:14.042Z,21.67
2018-02-23T11:51:46.043Z,21.74
2018-02-23T11:52:18.019Z,21.86
2018-02-23T11:52:50.016Z,21.93
2018-02-23T11:53:22.026Z,21.94
2018-02-23T11:53:54.058Z,22
2018-02-23T11:54:26.166Z,22.12
2018-02-23T11:54:58.208Z,22.14
2018-02-23T11:55:30.276Z,22.12
2018-02-23T11:56:02.298Z,22.24
2018-02-23T11:56:34.455Z,22.29
2018-02-23T11:57:06.514Z,22.34
2018-02-23T11:57:38.499Z,22.42
2018-02-23T11:58:10.507Z,22.45
2018-02-23T11:58:42.622Z,22.46
2018-02-23T11:59:14.738Z,22.63
2018-02-23T11:59:46.892Z,22.66
2018-02-23T12:00:18.908Z,22.67
2018-02-23T12:00:50.957Z,22.69
2018-02-23T12:01:23.021Z,22.75
2018-02-23T12:01:55.050Z,22.86
2018-02-23T12:02:27.085Z,22.91
2018-02-23T12:02:59.114Z,22.96
2018-02-23T12:03:31.178Z,23.07
2018-02-23T12:04:03.224Z,23.04
2018-02-23T12:04:35.911Z,23.09
2018-02-23T12:05:07.959Z,23.15
2018-02-23T12:05:40.015Z,23.26
2018-02-23T12:06:12.115Z,23.22
2018-02-23T12:06:44.048Z,23.35
2018-02-23T12:07:16.140Z,23.4
2018-02-23T12:07:49.273Z,23.44
2018-02-23T12:08:21.300Z,23.45
2018-02-23T12:08:53.348Z,23.47
2018-02-23T12:09:25.381Z,23.62
2018-02-23T12:09:57.598Z,23.57
2018-02-23T12:10:29.577Z,23.72
2018-02-23T12:11:01.699Z,23.74
2018-02-23T12:11:33.800Z,23.81
2018-02-23T12:12:05.813Z,23.89
2018-02-23T12:12:37.840Z,23.94
2018-02-23T12:13:09.888Z,23.92
2018-02-23T12:13:41.996Z,24
2018-02-23T12:14:14.053Z,24
2018-02-23T12:14:46.086Z,24.09
2018-02-23T12:15:18.087Z,24.12
2018-02-23T12:15:50.100Z,24.12
2018-02-23T12:16:22.225Z,24.22
2018-02-23T12:16:54.215Z,24.22
2018-02-23T12:17:26.251Z,24.24
2018-02-23T12:17:58.245Z,24.3
2018-02-23T12:18:30.247Z,24.4
2018-02-23T12:19:02.265Z,24.42
2018-02-23T12:19:35.107Z,24.52
2018-02-23T12:20:07.116Z,24.49
2018-02-23T12:20:39.151Z,24.58
2018-02-23T12:21:11.168Z,24.46
2018-02-23T12:21:43.332Z,24.64
2018-02-23T12:22:15.465Z,24.55
2018-02-23T12:22:47.471Z,24.61
2018-02-23T12:23:19.499Z,24.59
2018-02-23T12:23:51.549Z,24.71
2018-02-23T12:24:23.700Z,24.7
2018-02-23T12:24:55.695Z,24.74
2018-02-23T12:25:27.702Z,24.8
2018-02-23T12:25:59.722Z,24.86
2018-02-23T12:26:31.725Z,24.94
2018-02-23T12:27:03.730Z,24.89
2018-02-23T12:27:35.825Z,25
2018-02-23T12:28:07.851Z,25
2018-02-23T12:28:39.866Z,25.01
2018-02-23T12:29:11.929Z,25.11
2018-02-23T12:29:44.025Z,25.12
2018-02-23T12:30:16.153Z,25.2
2018-02-23T12:30:48.178Z,25.27
2018-02-23T12:31:20.355Z,25.33
2018-02-23T12:31:52.354Z,25.39
2018-02-23T12:32:24.403Z,25.38
2018-02-23T12:32:56.444Z,25.38
2018-02-23T12:33:28.443Z,25.41
2018-02-23T12:34:00.559Z,25.51
2018-02-23T12:34:32.655Z,25.51
2018-02-23T12:35:04.697Z,25.52
2018-02-23T12:35:36.744Z,25.56
2018-02-23T12:36:08.742Z,25.7
2018-02-23T12:36:40.883Z,25.78
2018-02-23T12:37:12.919Z,25.84
2018-02-23T12:37:44.917Z,25.76
2018-02-23T12:38:16.966Z,25.82
2018-02-23T12:38:49.095Z,25.88
2018-02-23T12:39:21.096Z,25.97
2018-02-23T12:39:53.111Z,25.97
2018-02-23T12:40:25.128Z,25.99
2018-02-23T12:40:57.167Z,26.15
2018-02-23T12:41:29.821Z,26.15
2018-02-23T12:42:01.921Z,26.17
2018-02-23T12:42:34.014Z,26.3
2018-02-23T12:43:06.051Z,26.24
2018-02-23T12:43:38.060Z,26.34
2018-02-23T12:44:10.113Z,26.39
2018-02-23T12:44:42.263Z,26.38
2018-02-23T12:45:14.285Z,26.47
2018-02-23T12:45:46.306Z,26.49
2018-02-23T12:46:18.361Z,26.59
2018-02-23T12:46:50.441Z,26.61
2018-02-23T12:47:22.419Z,26.59
2018-02-23T12:47:54.416Z,26.63
2018-02-23T12:48:26.489Z,26.76
2018-02-23T12:48:58.493Z,26.82
2018-02-23T12:49:30.493Z,26.81
2018-02-23T12:50:02.534Z,26.82
2018-02-23T12:50:34.542Z,26.81
2018-02-23T12:51:06.599Z,26.87
2018-02-23T12:51:38.647Z,26.9
2018-02-23T12:52:10.673Z,27
2018-02-23T12:52:42.727Z,26.97
2018-02-23T12:53:14.730Z,27.06
2018-02-23T12:53:47.542Z,27.16
2018-02-23T12:54:19.554Z,27.18
2018-02-23T12:54:51.552Z,27.21
2018-02-23T12:55:24.263Z,27.28
2018-02-23T12:55:56.278Z,27.34
2018-02-23T12:56:28.391Z,27.31
2018-02-23T12:57:00.517Z,27.46
2018-02-23T12:57:32.544Z,27.43
2018-02-23T12:58:04.550Z,27.52
2018-02-23T12:58:36.565Z,27.51
2018-02-23T12:59:08.605Z,27.61
2018-02-23T12:59:40.650Z,27.62
2018-02-23T13:00:12.695Z,27.59
2018-02-23T13:00:44.675Z,27.62
2018-02-23T13:01:16.700Z,27.71
2018-02-23T13:01:48.734Z,27.71
2018-02-23T13:02:20.834Z,27.66
2018-02-23T13:02:52.864Z,27.74
2018-02-23T13:03:24.910Z,27.72
2018-02-23T13:03:56.967Z,27.81
2018-02-23T13:04:28.974Z,27.86
2018-02-23T13:05:01.009Z,27.9
2018-02-23T13:05:33.118Z,27.94
2018-02-23T13:06:05.144Z,27.98
2018-02-23T13:06:37.166Z,28.02
2018-02-23T13:07:09.834Z,28.02
2018-02-23T13:07:41.932Z,28.03
2018-02-23T13:08:14.768Z,28.01
2018-02-23T13:08:46.706Z,28.14
2018-02-23T13:09:18.767Z,28.12
2018-02-23T13:09:50.770Z,28.17
2018-02-23T13:10:22.753Z,28.26
2018-02-23T13:10:54.780Z,28.24
2018-02-23T13:11:26.816Z,28.23
2018-02-23T13:11:58.853Z,28.31
2018-02-23T13:12:30.868Z,28.3
2018-02-23T13:13:02.929Z,28.35
2018-02-23T13:13:34.959Z,28.36
2018-02-23T13:14:07.033Z,28.45
2018-02-23T13:14:39.048Z,28.51
2018-02-23T13:15:11.095Z,28.46
2018-02-23T13:15:43.136Z,28.55
2018-02-23T13:16:15.128Z,28.54
2018-02-23T13:16:47.139Z,28.6
2018-02-23T13:17:19.175Z,28.65
2018-02-23T13:17:51.158Z,28.72
2018-02-23T13:18:23.203Z,28.72
2018-02-23T13:18:55.211Z,28.75
2018-02-23T13:19:27.236Z,28.79
2018-02-23T13:19:59.285Z,28.82
2018-02-23T13:20:31.360Z,28.83
2018-02-23T13:21:03.358Z,28.88
2018-02-23T13:21:35.408Z,28.91
2018-02-23T13:22:08.360Z,28.88
2018-02-23T13:22:40.377Z,28.97
2018-02-23T13:23:12.422Z,28.92
2018-02-23T13:23:44.461Z,28.92
2018-02-23T13:24:16.566Z,28.98
2018-02-23T13:24:48.617Z,29.1
2018-02-23T13:25:20.700Z,29.1
2018-02-23T13:25:52.726Z,29.06